Time;durP1;ratioP1;P1;durP2;ratioP2;P2;SDS_P1;SDS_P2;PMS_P1;PMS_P2;Temp;Humidity;BMP_temperature;BMP_pressure;BME280_temperature;BME280_humidity;BME280_pressure;Samples;Min_cycle;Max_cycle;Signal;HPM_P1;HPM_P2
2022/07/04 00:00:27;;;;;;;0.00;0.00;;;14.00;99.90;;;;;;4963887;28;20046;-58
2022/07/04 00:02:53;;;;;;;0.00;0.00;;;13.90;99.90;;;;;;4963455;28;20047;-58
2022/07/04 00:05:19;;;;;;;0.00;0.00;;;13.90;99.90;;;;;;4963207;28;20051;-58
2022/07/04 00:07:47;;;;;;;0.00;0.00;;;13.90;99.90;;;;;;4964890;28;20506;-58
2022/07/04 00:10:15;;;;;;;0.00;0.00;;;13.90;99.90;;;;;;4968100;28;20106;-58
2022/07/04 00:12:42;;;;;;;0.00;0.00;;;13.90;99.90;;;;;;4967817;28;20437;-58
2022/07/04 00:15:09;;;;;;;0.00;0.00;;;13.80;99.90;;;;;;4966743;28;20053;-58
2022/07/04 00:17:36;;;;;;;0.00;0.00;;;13.80;99.90;;;;;;4967222;28;20043;-58
2022/07/04 00:20:03;;;;;;;0.00;0.00;;;13.80;99.90;;;;;;4967430;28;20050;-58
2022/07/04 00:22:28;;;;;;;0.00;0.00;;;13.80;99.90;;;;;;4967058;28;20445;-58
2022/07/04 00:24:54;;;;;;;0.00;0.00;;;13.80;99.90;;;;;;4965978;28;20039;-58
2022/07/04 00:27:20;;;;;;;0.00;0.00;;;13.80;99.90;;;;;;4967349;28;20050;-58
2022/07/04 00:29:45;;;;;;;0.00;0.00;;;13.80;99.90;;;;;;4966751;28;20039;-54
2022/07/04 00:32:11;;;;;;;0.00;0.00;;;13.70;99.90;;;;;;4966783;28;20039;-57
2022/07/04 00:34:37;;;;;;;0.00;0.00;;;13.80;99.90;;;;;;4967135;28;20046;-57
2022/07/04 00:37:03;;;;;;;0.00;0.00;;;13.70;99.90;;;;;;4966988;28;20682;-58
2022/07/04 00:39:29;;;;;;;0.00;0.00;;;13.70;99.90;;;;;;4965814;28;20047;-58
2022/07/04 00:41:55;;;;;;;0.00;0.00;;;13.70;99.90;;;;;;4965576;28;20051;-58
2022/07/04 00:44:20;;;;;;;0.05;0.00;;;13.70;99.90;;;;;;4968324;28;20584;-58
2022/07/04 00:46:47;;;;;;;0.00;0.00;;;13.70;99.90;;;;;;4975300;28;20126;-57
2022/07/04 00:49:15;;;;;;;0.00;0.00;;;13.70;99.90;;;;;;4966891;28;20054;-58
2022/07/04 00:51:43;;;;;;;0.00;0.00;;;13.70;99.90;;;;;;4967369;28;20074;-58
2022/07/04 00:54:15;;;;;;;0.00;0.00;;;13.70;99.90;;;;;;4966939;28;20093;-58
2022/07/04 00:56:43;;;;;;;0.00;0.00;;;13.70;99.90;;;;;;4966662;28;20047;-58
2022/07/04 00:59:09;;;;;;;0.00;0.00;;;13.80;99.90;;;;;;4966419;28;20406;-57
2022/07/04 01:01:36;;;;;;;0.00;0.00;;;13.70;99.90;;;;;;4966269;28;21092;-58
2022/07/04 01:04:03;;;;;;;0.00;0.00;;;13.60;99.90;;;;;;4966850;28;20685;-58
2022/07/04 01:06:30;;;;;;;0.00;0.00;;;13.50;99.90;;;;;;4965943;28;20047;-58
2022/07/04 01:08:55;;;;;;;0.00;0.00;;;13.40;99.90;;;;;;4980399;23;20065;-55
2022/07/04 01:11:21;;;;;;;0.00;0.00;;;13.40;99.90;;;;;;4980953;28;20055;-57
2022/07/04 01:13:47;;;;;;;0.00;0.00;;;13.30;99.90;;;;;;4975904;28;20086;-57
2022/07/04 01:16:13;;;;;;;0.00;0.00;;;13.30;99.90;;;;;;4965947;28;20038;-58
2022/07/04 01:18:39;;;;;;;0.00;0.00;;;13.30;99.90;;;;;;4966271;28;20080;-57
2022/07/04 01:21:05;;;;;;;0.00;0.00;;;13.20;99.90;;;;;;4966732;28;20066;-58
2022/07/04 01:23:31;;;;;;;0.00;0.00;;;13.20;99.90;;;;;;4964459;28;20054;-58
2022/07/04 01:25:59;;;;;;;0.00;0.00;;;13.10;99.90;;;;;;4966390;28;20564;-58
2022/07/04 01:28:25;;;;;;;0.00;0.00;;;13.10;99.90;;;;;;4965487;28;20043;-58
2022/07/04 01:30:51;;;;;;;0.00;0.00;;;13.10;99.90;;;;;;4966164;28;20866;-58
2022/07/04 01:33:20;;;;;;;0.00;0.00;;;13.10;99.90;;;;;;4965596;28;20402;-57
2022/07/04 01:35:46;;;;;;;0.00;0.00;;;13.10;99.90;;;;;;4966355;28;20085;-53
2022/07/04 01:38:12;;;;;;;0.00;0.00;;;13.20;99.90;;;;;;4966465;28;20053;-58
2022/07/04 01:40:38;;;;;;;0.00;0.00;;;13.10;99.90;;;;;;4965593;28;20159;-58
2022/07/04 01:43:04;;;;;;;0.00;0.00;;;13.20;99.90;;;;;;4965404;28;20063;-58
2022/07/04 01:45:30;;;;;;;0.00;0.00;;;13.10;99.90;;;;;;4975640;28;20072;-58
2022/07/04 01:47:56;;;;;;;0.00;0.00;;;13.10;99.90;;;;;;4967426;28;20050;-57
2022/07/04 01:50:22;;;;;;;0.00;0.00;;;13.10;99.90;;;;;;4965468;28;20049;-58
2022/07/04 01:52:48;;;;;;;0.10;0.10;;;13.10;99.90;;;;;;4964585;28;20451;-58
2022/07/04 01:55:13;;;;;;;0.00;0.00;;;13.10;99.90;;;;;;4966446;28;20082;-59
2022/07/04 01:57:39;;;;;;;0.00;0.00;;;13.00;99.90;;;;;;4979741;28;20047;-57
2022/07/04 02:02:55;;;;;;;0.00;0.00;;;13.10;99.90;;;;;;4965785;28;20135;-58
2022/07/04 02:05:22;;;;;;;0.00;0.00;;;13.00;99.90;;;;;;4965496;28;20837;-57
2022/07/04 02:07:48;;;;;;;0.00;0.00;;;13.00;99.90;;;;;;4965242;28;20413;-57
2022/07/04 02:10:13;;;;;;;0.00;0.00;;;13.00;99.90;;;;;;4965899;28;20118;-58
2022/07/04 02:15:24;;;;;;;0.00;0.00;;;13.00;99.90;;;;;;4965362;28;20374;-58
2022/07/04 02:17:50;;;;;;;0.00;0.00;;;13.00;99.90;;;;;;4965491;28;20183;-58
2022/07/04 02:20:15;;;;;;;0.00;0.00;;;12.90;99.90;;;;;;4964707;28;20050;-54
2022/07/04 02:22:41;;;;;;;0.10;0.00;;;12.90;99.90;;;;;;4965549;28;20042;-55
2022/07/04 02:25:07;;;;;;;0.00;0.00;;;12.80;99.90;;;;;;4965389;28;20089;-57
2022/07/04 02:27:33;;;;;;;0.00;0.00;;;12.80;99.90;;;;;;4964405;28;20094;-57
2022/07/04 02:29:59;;;;;;;0.10;0.10;;;12.80;99.90;;;;;;4964069;28;20039;-58
2022/07/04 02:32:24;;;;;;;0.00;0.00;;;12.80;99.90;;;;;;4964843;28;20043;-57
2022/07/04 02:34:50;;;;;;;0.00;0.00;;;12.80;99.90;;;;;;4965018;28;20062;-59
2022/07/04 02:37:16;;;;;;;0.05;0.05;;;12.80;99.90;;;;;;4964316;28;20077;-58
2022/07/04 02:39:42;;;;;;;0.00;0.00;;;12.70;99.90;;;;;;4965581;28;20077;-57
2022/07/04 02:42:09;;;;;;;0.00;0.00;;;12.70;99.90;;;;;;4964484;28;20042;-58
2022/07/04 02:44:35;;;;;;;0.00;0.00;;;12.70;99.90;;;;;;4967239;28;20042;-57
2022/07/04 02:47:00;;;;;;;0.00;0.00;;;12.70;99.90;;;;;;4972936;28;20053;-58
2022/07/04 02:49:27;;;;;;;0.00;0.00;;;12.60;99.90;;;;;;4964590;28;20129;-57
2022/07/04 02:51:52;;;;;;;0.00;0.00;;;12.60;99.90;;;;;;4965220;28;20078;-58
2022/07/04 02:54:18;;;;;;;0.00;0.00;;;12.50;99.90;;;;;;4964668;28;20405;-58
2022/07/04 02:56:44;;;;;;;0.17;0.17;;;12.50;99.90;;;;;;4964559;28;20633;-57
2022/07/04 02:59:10;;;;;;;0.00;0.00;;;12.40;99.90;;;;;;4978906;28;20079;-58
2022/07/04 03:01:35;;;;;;;0.10;0.00;;;12.30;99.90;;;;;;4964497;28;20050;-58
2022/07/04 03:04:02;;;;;;;0.00;0.00;;;12.40;99.90;;;;;;4962963;28;20078;-57
2022/07/04 03:06:28;;;;;;;0.00;0.00;;;12.30;99.90;;;;;;4964294;28;20183;-57
2022/07/04 03:08:54;;;;;;;0.05;0.05;;;12.30;99.90;;;;;;4979271;28;20095;-58
2022/07/04 03:11:20;;;;;;;0.00;0.00;;;12.30;99.90;;;;;;4964421;28;20139;-57
2022/07/04 03:13:46;;;;;;;0.00;0.00;;;12.30;99.90;;;;;;4963253;28;20039;-56
2022/07/04 03:16:11;;;;;;;0.00;0.00;;;12.40;99.90;;;;;;4964746;28;20051;-59
2022/07/04 03:18:38;;;;;;;0.05;0.00;;;12.30;99.90;;;;;;4964393;28;20482;-59
2022/07/04 03:21:06;;;;;;;0.00;0.00;;;12.30;99.90;;;;;;4964115;28;20081;-58
2022/07/04 03:23:34;;;;;;;0.00;0.00;;;12.30;99.90;;;;;;4964303;28;20070;-58
2022/07/04 03:26:00;;;;;;;0.00;0.00;;;12.30;99.90;;;;;;4964189;28;20089;-58
2022/07/04 03:28:26;;;;;;;0.05;0.05;;;12.30;99.90;;;;;;4963554;28;20444;-58
2022/07/04 03:30:52;;;;;;;0.00;0.00;;;12.30;99.90;;;;;;4963773;28;20516;-58
2022/07/04 03:33:18;;;;;;;0.00;0.00;;;12.30;99.90;;;;;;4963901;28;20057;-58
2022/07/04 03:35:44;;;;;;;0.00;0.00;;;12.30;99.90;;;;;;4964476;28;20041;-57
2022/07/04 03:38:09;;;;;;;0.00;0.00;;;12.30;99.90;;;;;;4964242;28;20048;-58
2022/07/04 03:40:35;;;;;;;0.00;0.00;;;12.30;99.90;;;;;;4963851;28;20146;-58
2022/07/04 03:43:03;;;;;;;0.03;0.03;;;12.30;99.90;;;;;;4962356;28;20051;-57
2022/07/04 03:45:29;;;;;;;0.15;0.10;;;12.30;99.90;;;;;;4973649;28;20054;-58
2022/07/04 03:47:56;;;;;;;0.00;0.00;;;12.30;99.90;;;;;;4964725;28;20043;-58
2022/07/04 03:50:22;;;;;;;0.08;0.08;;;12.40;99.90;;;;;;4963813;28;20121;-57
2022/07/04 03:52:48;;;;;;;0.10;0.05;;;12.30;99.90;;;;;;4964024;28;20387;-57
2022/07/04 03:55:13;;;;;;;0.00;0.00;;;12.30;99.90;;;;;;4964239;28;20050;-57
2022/07/04 03:57:39;;;;;;;0.00;0.00;;;12.30;99.90;;;;;;4962558;28;20051;-58
2022/07/04 04:00:07;;;;;;;0.00;0.00;;;12.30;99.90;;;;;;4964029;28;20043;-58
2022/07/04 04:02:33;;;;;;;0.00;0.00;;;12.30;99.90;;;;;;4963903;28;20721;-57
2022/07/04 04:07:43;;;;;;;0.00;0.00;;;12.40;99.90;;;;;;4962860;28;20047;-58
2022/07/04 04:10:10;;;;;;;0.00;0.00;;;12.50;99.90;;;;;;4964049;28;20468;-57
2022/07/04 04:12:35;;;;;;;0.00;0.00;;;12.50;99.90;;;;;;4962493;28;20047;-58
2022/07/04 04:15:02;;;;;;;0.00;0.00;;;12.60;99.90;;;;;;4963691;28;20505;-57
2022/07/04 04:17:27;;;;;;;0.10;0.10;;;12.70;99.90;;;;;;4963663;28;20051;-58
2022/07/04 04:19:53;;;;;;;0.10;0.10;;;12.80;99.90;;;;;;4963790;28;20042;-58
2022/07/04 04:22:19;;;;;;;0.00;0.00;;;12.90;99.90;;;;;;4963200;28;20662;-57
2022/07/04 04:24:44;;;;;;;0.00;0.00;;;12.80;99.90;;;;;;4964123;28;20039;-58
2022/07/04 04:27:10;;;;;;;0.20;0.20;;;12.80;99.90;;;;;;4963261;28;20405;-58
2022/07/04 04:29:35;;;;;;;0.22;0.10;;;12.70;99.90;;;;;;4963215;28;20051;-58
2022/07/04 04:32:01;;;;;;;0.38;0.30;;;12.70;99.90;;;;;;4978253;28;20046;-58
2022/07/04 04:34:27;;;;;;;0.10;0.10;;;12.70;99.90;;;;;;4963416;28;20035;-58
2022/07/04 04:36:52;;;;;;;0.00;0.00;;;12.70;99.90;;;;;;4963913;28;20043;-58
2022/07/04 04:39:18;;;;;;;0.00;0.00;;;12.70;99.90;;;;;;4962890;28;20194;-58
2022/07/04 04:41:44;;;;;;;0.00;0.00;;;12.80;99.90;;;;;;4963275;28;20051;-57
2022/07/04 04:44:09;;;;;;;0.05;0.05;;;12.80;99.90;;;;;;4966126;28;20049;-58
2022/07/04 04:46:35;;;;;;;0.00;0.00;;;12.90;99.90;;;;;;4972121;28;20439;-58
2022/07/04 04:49:00;;;;;;;0.10;0.08;;;13.00;99.90;;;;;;4977799;28;20047;-59
2022/07/04 04:51:26;;;;;;;0.75;0.30;;;13.10;99.90;;;;;;4963368;28;20125;-58
2022/07/04 04:53:52;;;;;;;0.00;0.00;;;13.20;99.90;;;;;;4964756;28;20070;-57
2022/07/04 04:56:17;;;;;;;0.00;0.00;;;13.40;99.90;;;;;;4981305;28;20057;-57
2022/07/04 04:58:47;;;;;;;0.52;0.32;;;13.70;99.90;;;;;;4966226;28;20046;-55
2022/07/04 05:01:13;;;;;;;0.00;0.00;;;14.10;99.90;;;;;;4967115;28;20410;-58
2022/07/04 05:03:38;;;;;;;0.63;0.32;;;14.50;99.90;;;;;;4966716;28;20045;-57
2022/07/04 05:06:04;;;;;;;0.00;0.00;;;14.60;99.90;;;;;;4966544;28;20043;-58
2022/07/04 05:08:30;;;;;;;0.00;0.00;;;14.90;99.90;;;;;;4966421;28;20415;-58
2022/07/04 05:10:55;;;;;;;0.00;0.00;;;15.20;99.90;;;;;;4966633;28;20498;-56
2022/07/04 05:13:21;;;;;;;0.00;0.00;;;15.50;99.90;;;;;;4965850;28;20049;-58
2022/07/04 05:15:47;;;;;;;0.15;0.10;;;15.40;99.90;;;;;;4966011;28;20495;-57
2022/07/04 05:18:13;;;;;;;0.08;0.08;;;15.30;99.90;;;;;;4967176;28;20047;-58
2022/07/04 05:20:39;;;;;;;0.10;0.10;;;15.30;99.90;;;;;;4966032;28;20474;-60
2022/07/04 05:23:06;;;;;;;0.03;0.03;;;15.30;99.90;;;;;;4966140;28;20125;-58
2022/07/04 05:25:32;;;;;;;0.00;0.00;;;15.30;99.90;;;;;;4966019;28;20073;-58
2022/07/04 05:27:58;;;;;;;0.00;0.00;;;15.30;99.90;;;;;;4965809;28;20046;-57
2022/07/04 05:30:24;;;;;;;0.00;0.00;;;15.50;99.90;;;;;;4966220;28;20113;-58
2022/07/04 05:32:49;;;;;;;0.00;0.00;;;16.00;99.90;;;;;;4965716;28;20489;-59
2022/07/04 05:35:15;;;;;;;1.08;0.77;;;16.30;99.90;;;;;;4981195;28;20051;-55
2022/07/04 05:37:41;;;;;;;0.00;0.00;;;16.30;99.90;;;;;;4966529;28;20043;-59
2022/07/04 05:40:08;;;;;;;0.13;0.13;;;16.50;99.90;;;;;;4966006;28;20047;-59
2022/07/04 05:42:36;;;;;;;0.00;0.00;;;16.60;99.90;;;;;;4964896;28;20053;-58
2022/07/04 05:45:03;;;;;;;0.00;0.00;;;16.80;99.90;;;;;;4972167;28;20125;-58
2022/07/04 05:47:28;;;;;;;0.00;0.00;;;16.90;99.90;;;;;;4970662;28;20474;-58
2022/07/04 05:49:54;;;;;;;0.00;0.00;;;17.00;99.90;;;;;;4965616;28;20074;-58
2022/07/04 05:52:20;;;;;;;0.00;0.00;;;17.20;99.90;;;;;;4965718;28;20061;-58
2022/07/04 05:54:45;;;;;;;0.10;0.10;;;17.50;99.90;;;;;;4981054;28;20548;-58
2022/07/04 05:57:11;;;;;;;0.00;0.00;;;17.30;99.90;;;;;;4980583;28;20478;-57
2022/07/04 05:59:37;;;;;;;0.00;0.00;;;17.40;99.90;;;;;;4965252;28;20051;-58
2022/07/04 06:02:03;;;;;;;0.10;0.10;;;17.80;99.90;;;;;;4965974;28;20035;-58
2022/07/04 06:04:29;;;;;;;0.00;0.00;;;17.60;99.90;;;;;;4965387;28;20042;-58
2022/07/04 06:06:54;;;;;;;0.00;0.00;;;17.20;99.90;;;;;;4965081;28;20093;-58
2022/07/04 06:09:20;;;;;;;0.00;0.00;;;16.90;99.90;;;;;;4964606;28;20426;-58
2022/07/04 06:11:46;;;;;;;0.00;0.00;;;16.50;99.90;;;;;;4964849;28;20134;-56
2022/07/04 06:14:12;;;;;;;0.00;0.00;;;16.70;99.90;;;;;;4966049;28;20038;-58
2022/07/04 06:16:37;;;;;;;0.00;0.00;;;16.90;99.90;;;;;;4964936;28;20038;-58
2022/07/04 06:19:03;;;;;;;0.00;0.00;;;17.30;99.90;;;;;;4965278;28;20561;-58
2022/07/04 06:21:29;;;;;;;0.00;0.00;;;17.60;99.90;;;;;;4964028;28;20043;-58
2022/07/04 06:23:54;;;;;;;0.00;0.00;;;17.80;99.90;;;;;;4965238;28;20054;-58
2022/07/04 06:26:20;;;;;;;0.00;0.00;;;17.80;99.90;;;;;;4964535;28;20042;-58
2022/07/04 06:28:46;;;;;;;0.30;0.20;;;17.70;99.90;;;;;;4964382;28;20189;-58
2022/07/04 06:31:12;;;;;;;0.10;0.10;;;17.60;99.90;;;;;;4965364;28;20076;-58
2022/07/04 06:36:22;;;;;;;0.10;0.10;;;17.90;99.90;;;;;;4965019;28;20046;-57
2022/07/04 06:38:48;;;;;;;0.30;0.20;;;18.00;99.90;;;;;;4965074;28;20506;-58
2022/07/04 06:41:14;;;;;;;0.00;0.00;;;18.20;99.90;;;;;;4964782;28;20039;-58
2022/07/04 06:43:40;;;;;;;0.00;0.00;;;18.20;99.90;;;;;;4964533;28;20061;-58
2022/07/04 06:46:05;;;;;;;0.00;0.00;;;18.40;99.90;;;;;;4975597;28;20050;-66
2022/07/04 06:48:31;;;;;;;0.00;0.00;;;18.40;99.90;;;;;;4964523;28;20513;-57
2022/07/04 06:50:57;;;;;;;0.10;0.05;;;18.40;99.90;;;;;;4964670;28;20098;-59
2022/07/04 06:53:23;;;;;;;0.30;0.25;;;18.40;99.90;;;;;;4964389;28;20560;-58
2022/07/04 06:55:48;;;;;;;0.25;0.15;;;18.20;99.90;;;;;;4964954;28;20049;-57
2022/07/04 06:58:14;;;;;;;0.10;0.10;;;18.40;99.90;;;;;;4964304;28;20038;-59
2022/07/04 07:00:41;;;;;;;0.00;0.00;;;18.50;99.90;;;;;;4964239;28;20665;-62
2022/07/04 07:03:07;;;;;;;0.00;0.00;;;18.80;99.90;;;;;;4964794;28;20045;-65
2022/07/04 07:05:36;;;;;;;0.08;0.00;;;18.80;99.90;;;;;;4964248;28;20492;-63
2022/07/04 07:08:03;;;;;;;0.20;0.20;;;18.60;99.90;;;;;;4963474;28;20141;-66
2022/07/04 07:10:28;;;;;;;0.00;0.00;;;18.50;99.90;;;;;;4964353;28;20047;-62
2022/07/04 07:12:54;;;;;;;0.00;0.00;;;18.50;99.90;;;;;;4963600;28;20062;-60
2022/07/04 07:15:20;;;;;;;0.17;0.15;;;18.70;99.90;;;;;;4963964;28;20043;-61
2022/07/04 07:17:46;;;;;;;0.35;0.20;;;18.60;99.90;;;;;;4978264;28;20046;-64
2022/07/04 07:20:13;;;;;;;0.10;0.10;;;18.70;99.90;;;;;;4964747;28;20124;-72
2022/07/04 07:22:40;;;;;;;0.13;0.10;;;18.70;99.90;;;;;;4964011;28;20756;-61
2022/07/04 07:25:06;;;;;;;0.00;0.00;;;18.60;99.90;;;;;;4963798;28;20055;-65
2022/07/04 07:27:31;;;;;;;0.90;0.70;;;18.70;99.90;;;;;;4963331;28;20417;-66
2022/07/04 07:29:57;;;;;;;0.00;0.00;;;18.90;99.90;;;;;;4964119;28;20051;-66
2022/07/04 07:32:22;;;;;;;0.10;0.10;;;18.90;99.90;;;;;;4963687;28;20043;-66
2022/07/04 07:34:48;;;;;;;0.88;0.80;;;18.70;99.90;;;;;;4964011;28;20046;-65
2022/07/04 07:37:14;;;;;;;0.00;0.00;;;18.60;99.90;;;;;;4983205;28;20108;-65
2022/07/04 07:39:39;;;;;;;0.00;0.00;;;18.80;99.90;;;;;;4983622;28;20042;-66
2022/07/04 07:42:05;;;;;;;0.00;0.00;;;18.90;99.90;;;;;;4982791;28;20290;-66
2022/07/04 07:44:31;;;;;;;0.32;0.15;;;19.10;99.90;;;;;;4977536;28;20182;-66
2022/07/04 07:46:56;;;;;;;0.30;0.20;;;19.20;99.90;;;;;;4972468;28;20573;-65
2022/07/04 07:49:22;;;;;;;0.00;0.00;;;19.10;99.90;;;;;;4964082;28;20039;-65
2022/07/04 07:51:48;;;;;;;2.08;0.38;;;19.10;99.90;;;;;;4978719;28;20404;-64
2022/07/04 07:54:13;;;;;;;0.15;0.15;;;19.20;99.90;;;;;;4964312;28;20051;-65
2022/07/04 07:56:39;;;;;;;0.65;0.10;;;19.30;99.90;;;;;;4963156;28;20142;-65
2022/07/04 07:59:05;;;;;;;0.40;0.03;;;19.40;99.90;;;;;;4963730;28;20389;-66
2022/07/04 08:01:31;;;;;;;0.00;0.00;;;19.50;99.90;;;;;;4973817;28;20046;-66
2022/07/04 08:06:41;;;;;;;0.00;0.00;;;19.80;99.90;;;;;;4983380;28;20521;-65
2022/07/04 08:09:07;;;;;;;0.00;0.00;;;19.50;99.90;;;;;;4982736;28;20117;-66
2022/07/04 08:11:33;;;;;;;0.00;0.00;;;19.00;99.90;;;;;;4982189;28;20588;-70
2022/07/04 08:13:59;;;;;;;0.05;0.05;;;18.90;99.90;;;;;;4983462;28;20077;-65
2022/07/04 08:16:24;;;;;;;0.10;0.00;;;19.20;99.90;;;;;;4982527;28;20486;-64
2022/07/04 08:18:50;;;;;;;0.00;0.00;;;19.40;99.90;;;;;;4982913;28;20408;-64
2022/07/04 08:21:16;;;;;;;0.00;0.00;;;19.20;99.90;;;;;;4982845;28;20093;-61
2022/07/04 08:23:42;;;;;;;0.00;0.00;;;19.20;99.90;;;;;;4983532;28;20108;-64
2022/07/04 08:26:07;;;;;;;0.08;0.08;;;19.40;99.90;;;;;;4981900;28;20038;-62
2022/07/04 08:28:33;;;;;;;0.00;0.00;;;19.30;99.90;;;;;;4983415;28;20054;-65
2022/07/04 08:30:59;;;;;;;0.00;0.00;;;19.40;99.90;;;;;;4986780;28;20075;-63
2022/07/04 08:33:25;;;;;;;0.00;0.00;;;19.70;99.90;;;;;;4986670;28;20049;-61
2022/07/04 08:35:51;;;;;;;0.00;0.00;;;19.80;99.90;;;;;;4986344;28;20101;-61
2022/07/04 08:38:17;;;;;;;0.00;0.00;;;20.00;99.90;;;;;;4986490;28;20062;-61
2022/07/04 08:40:43;;;;;;;0.15;0.15;;;20.00;99.90;;;;;;4986828;28;20053;-62
2022/07/04 08:43:13;;;;;;;0.00;0.00;;;20.10;99.90;;;;;;4984770;28;20038;-60
2022/07/04 08:45:40;;;;;;;0.00;0.00;;;20.00;99.90;;;;;;4984215;28;20046;-62
2022/07/04 08:48:08;;;;;;;0.15;0.15;;;19.90;99.90;;;;;;4985459;28;20100;-60
2022/07/04 08:50:54;;;;;;;0.00;0.00;;;19.60;99.90;;;;;;5013655;28;20038;-67
2022/07/04 08:53:22;;;;;;;0.08;0.08;;;19.60;99.90;;;;;;4984240;28;20046;-60
2022/07/04 08:58:33;;;;;;;0.00;0.00;;;19.40;99.90;;;;;;4985974;28;20558;-61
2022/07/04 09:01:01;;;;;;;0.00;0.00;;;19.20;99.90;;;;;;4986189;28;20065;-59
2022/07/04 09:03:28;;;;;;;0.10;0.10;;;19.30;99.90;;;;;;4985981;28;20517;-60
2022/07/04 09:05:55;;;;;;;0.00;0.00;;;19.20;99.90;;;;;;4985785;28;20181;-60
2022/07/04 09:08:21;;;;;;;0.20;0.00;;;19.20;99.90;;;;;;4984872;28;20088;-60
2022/07/04 09:10:50;;;;;;;0.00;0.00;;;19.20;99.90;;;;;;4984739;28;20093;-60
2022/07/04 09:13:17;;;;;;;0.03;0.00;;;19.20;99.90;;;;;;4982968;28;20058;-60
2022/07/04 09:15:51;;;;;;;0.00;0.00;;;19.20;99.90;;;;;;4984972;28;20042;-59
2022/07/04 09:18:25;;;;;;;0.00;0.00;;;19.20;99.90;;;;;;4984704;28;20096;-60
2022/07/04 09:20:52;;;;;;;0.00;0.00;;;19.30;99.90;;;;;;4984150;28;20436;-59
2022/07/04 09:23:21;;;;;;;0.00;0.00;;;19.10;99.90;;;;;;4984651;28;20057;-60
2022/07/04 09:25:47;;;;;;;0.10;0.00;;;19.10;99.90;;;;;;4984424;28;20121;-60
2022/07/04 09:28:26;;;;;;;0.00;0.00;;;19.10;99.90;;;;;;4984131;28;20038;-59
2022/07/04 09:30:51;;;;;;;0.00;0.00;;;19.10;99.90;;;;;;4984114;28;20050;-60
2022/07/04 09:33:18;;;;;;;0.00;0.00;;;19.10;99.90;;;;;;4984392;28;20096;-59
2022/07/04 09:35:44;;;;;;;0.00;0.00;;;18.80;99.90;;;;;;4984140;28;20451;-59
2022/07/04 09:38:14;;;;;;;0.00;0.00;;;18.70;99.90;;;;;;4984373;28;20113;-60
2022/07/04 09:43:25;;;;;;;0.00;0.00;;;18.70;99.90;;;;;;4964591;28;20047;-60
2022/07/04 09:45:59;;;;;;;0.00;0.00;;;18.80;99.90;;;;;;4975822;28;20129;-60
2022/07/04 09:48:25;;;;;;;;;;;19.10;99.90;;;;;;4965202;28;20601;-59
2022/07/04 09:50:51;;;;;;;0.00;0.00;;;19.20;99.90;;;;;;4964503;28;19930;-59
2022/07/04 09:53:17;;;;;;;0.00;0.00;;;19.30;99.90;;;;;;4964799;28;20062;-60
2022/07/04 09:55:45;;;;;;;0.00;0.00;;;19.50;99.90;;;;;;4982935;28;20213;-62
2022/07/04 09:58:14;;;;;;;0.00;0.00;;;19.70;99.90;;;;;;4983001;28;20767;-60
2022/07/04 10:00:42;;;;;;;0.00;0.00;;;20.40;99.90;;;;;;4983683;28;20050;-65
2022/07/04 10:03:22;;;;;;;2.85;0.45;;;20.70;99.90;;;;;;4983838;28;20045;-61
2022/07/04 10:06:04;;;;;;;0.00;0.00;;;20.70;99.90;;;;;;4983380;28;20100;-64
2022/07/04 10:08:30;;;;;;;0.00;0.00;;;20.50;99.90;;;;;;4941250;28;1093132;-73
2022/07/04 10:11:00;;;;;;;0.00;0.00;;;20.30;99.90;;;;;;4984099;28;20088;-61
2022/07/04 10:13:26;;;;;;;0.00;0.00;;;20.20;99.90;;;;;;4984491;28;20062;-58
2022/07/04 10:15:53;;;;;;;0.00;0.00;;;19.90;99.90;;;;;;4984555;28;20133;-57
2022/07/04 10:18:20;;;;;;;0.00;0.00;;;19.60;99.90;;;;;;4984370;28;20042;-61
2022/07/04 10:20:48;;;;;;;0.00;0.00;;;19.70;99.90;;;;;;4983879;28;20045;-62
2022/07/04 10:23:15;;;;;;;0.00;0.00;;;19.80;99.90;;;;;;4985063;28;20203;-63
2022/07/04 10:25:41;;;;;;;0.00;0.00;;;19.50;99.90;;;;;;4967283;28;20074;-68
2022/07/04 10:28:08;;;;;;;0.00;0.00;;;19.90;99.90;;;;;;4983119;28;20081;-70
2022/07/04 10:30:38;;;;;;;0.00;0.00;;;20.00;99.90;;;;;;4983532;28;20522;-75
2022/07/04 10:33:07;;;;;;;0.00;0.00;;;20.50;99.90;;;;;;4983777;28;20108;-69
2022/07/04 10:35:56;;;;;;;0.00;0.00;;;21.20;99.90;;;;;;4982441;28;20046;-61
2022/07/04 10:38:23;;;;;;;0.00;0.00;;;21.70;99.90;;;;;;4983660;28;20083;-74
2022/07/04 10:40:51;;;;;;;0.00;0.00;;;22.30;99.90;;;;;;4983114;28;20039;-67
2022/07/04 10:46:27;;;;;;;0.00;0.00;;;22.50;99.90;;;;;;4975487;28;20058;-60
2022/07/04 10:48:59;;;;;;;0.00;0.00;;;22.00;99.90;;;;;;4964251;28;20485;-62
2022/07/04 10:51:45;;;;;;;0.00;0.00;;;21.50;99.90;;;;;;4979261;28;20052;-61
2022/07/04 10:54:31;;;;;;;0.20;0.20;;;21.40;99.90;;;;;;4964887;28;20126;-60
2022/07/04 10:57:12;;;;;;;0.00;0.00;;;21.70;99.90;;;;;;4963752;28;20125;-60
2022/07/04 10:59:39;;;;;;;0.00;0.00;;;21.90;99.90;;;;;;4964206;28;20057;-61
2022/07/04 11:02:08;;;;;;;0.00;0.00;;;22.50;99.90;;;;;;4964504;28;20121;-61
2022/07/04 11:04:55;;;;;;;0.00;0.00;;;22.30;99.90;;;;;;4963965;28;20047;-61
2022/07/04 11:07:35;;;;;;;0.00;0.00;;;22.70;99.90;;;;;;4963209;28;20059;-60
2022/07/04 11:10:12;;;;;;;0.00;0.00;;;22.90;99.90;;;;;;4963609;28;20215;-60
2022/07/04 11:12:53;;;;;;;0.00;0.00;;;22.90;99.90;;;;;;4963492;28;20054;-60
2022/07/04 11:15:28;;;;;;;0.00;0.00;;;22.50;99.90;;;;;;4967121;28;20086;-60
2022/07/04 11:17:59;;;;;;;0.00;0.00;;;22.30;99.90;;;;;;4983461;28;20129;-60
2022/07/04 11:20:26;;;;;;;0.00;0.00;;;22.00;99.90;;;;;;4983371;28;20030;-60
2022/07/04 11:22:52;;;;;;;0.00;0.00;;;22.40;99.90;;;;;;4981660;28;20112;-61
2022/07/04 11:25:18;;;;;;;0.00;0.00;;;22.50;99.90;;;;;;4983065;28;20034;-61
2022/07/04 11:27:43;;;;;;;0.00;0.00;;;22.70;99.90;;;;;;4982628;28;20034;-61
2022/07/04 11:30:11;;;;;;;0.00;0.00;;;22.80;99.90;;;;;;4983563;28;20053;-61
2022/07/04 11:32:38;;;;;;;0.00;0.00;;;23.00;99.90;;;;;;4982757;28;20042;-66
2022/07/04 11:35:05;;;;;;;0.00;0.00;;;23.20;99.90;;;;;;4983230;28;20489;-66
2022/07/04 11:37:31;;;;;;;0.03;0.03;;;23.40;99.90;;;;;;4983208;28;20078;-65
2022/07/04 11:45:48;;;;;;;0.00;0.00;;;22.00;99.90;;;;;;4976033;28;20050;-65
2022/07/04 11:48:24;;;;;;;0.00;0.00;;;22.00;99.90;;;;;;4963884;28;20053;-65
2022/07/04 11:50:49;;;;;;;0.17;0.10;;;21.80;99.90;;;;;;4963923;28;20656;-68
2022/07/04 11:53:17;;;;;;;0.00;0.00;;;22.20;99.90;;;;;;4964602;28;20047;-65
2022/07/04 11:55:53;;;;;;;0.00;0.00;;;22.40;99.90;;;;;;4963536;28;20488;-63
2022/07/04 11:58:19;;;;;;;0.00;0.00;;;22.80;99.90;;;;;;4963675;28;20075;-64
2022/07/04 12:00:44;;;;;;;0.00;0.00;;;22.70;99.90;;;;;;4964179;28;20332;-69
2022/07/04 12:03:10;;;;;;;0.00;0.00;;;22.90;99.90;;;;;;4963863;28;20433;-65
2022/07/04 12:05:37;;;;;;;0.00;0.00;;;23.20;99.90;;;;;;4966801;28;20057;-67
2022/07/04 12:08:05;;;;;;;0.00;0.00;;;22.70;99.90;;;;;;4981905;28;20070;-62
2022/07/04 12:10:32;;;;;;;0.00;0.00;;;22.60;99.90;;;;;;4966780;28;20062;-66
2022/07/04 12:13:02;;;;;;;0.00;0.00;;;22.20;99.90;;;;;;4967012;28;20038;-65
2022/07/04 12:15:46;;;;;;;0.00;0.00;;;22.40;99.90;;;;;;4967162;28;20100;-66
2022/07/04 12:18:20;;;;;;;0.00;0.00;;;22.60;99.90;;;;;;4967698;28;20058;-65
2022/07/04 12:20:47;;;;;;;0.00;0.00;;;22.60;99.90;;;;;;4967207;28;20483;-63
2022/07/04 12:23:13;;;;;;;0.00;0.00;;;22.30;99.90;;;;;;4968078;28;20105;-64
2022/07/04 12:25:39;;;;;;;0.08;0.08;;;22.60;99.90;;;;;;4966341;28;20663;-68
2022/07/04 12:28:10;;;;;;;0.00;0.00;;;22.70;99.90;;;;;;4967035;28;20469;-68
2022/07/04 12:30:56;;;;;;;0.05;0.03;;;22.80;99.90;;;;;;4967337;28;20055;-62
2022/07/04 12:33:25;;;;;;;0.00;0.00;;;22.80;99.90;;;;;;4966590;28;20053;-63
2022/07/04 12:35:59;;;;;;;0.00;0.00;;;22.90;99.90;;;;;;4966968;28;20038;-65
2022/07/04 12:38:27;;;;;;;0.00;0.00;;;23.10;99.90;;;;;;4966716;28;20046;-65
2022/07/04 12:41:01;;;;;;;0.00;0.00;;;23.30;99.90;;;;;;4965492;28;20082;-63
2022/07/04 12:43:45;;;;;;;0.30;0.10;;;23.40;99.90;;;;;;4966683;28;20042;-63
2022/07/04 12:46:26;;;;;;;0.00;0.00;;;22.90;99.90;;;;;;4977495;28;20051;-69
2022/07/04 12:48:53;;;;;;;0.00;0.00;;;22.60;99.90;;;;;;4981214;28;20121;-70
2022/07/04 12:51:20;;;;;;;0.00;0.00;;;22.70;99.90;;;;;;4985427;28;20088;-63
2022/07/04 12:53:47;;;;;;;0.00;0.00;;;22.60;99.90;;;;;;4985342;28;20082;-65
2022/07/04 12:56:29;;;;;;;0.00;0.00;;;22.50;99.90;;;;;;4982126;28;20096;-64
2022/07/04 12:58:55;;;;;;;0.00;0.00;;;22.30;99.90;;;;;;4986047;28;20054;-70
2022/07/04 13:01:21;;;;;;;0.00;0.00;;;22.40;99.90;;;;;;4985575;28;20046;-65
2022/07/04 13:03:47;;;;;;;0.00;0.00;;;22.50;99.90;;;;;;4985645;28;20065;-67
2022/07/04 13:06:13;;;;;;;0.00;0.00;;;22.80;99.90;;;;;;4986568;28;20076;-62
2022/07/04 13:08:38;;;;;;;0.00;0.00;;;22.80;99.90;;;;;;4980161;28;20514;-66
2022/07/04 13:13:48;;;;;;;0.00;0.00;;;22.90;99.90;;;;;;4973438;28;20074;-65
2022/07/04 13:16:14;;;;;;;0.00;0.00;;;22.90;99.90;;;;;;4972893;28;20635;-66
2022/07/04 13:18:40;;;;;;;0.00;0.00;;;23.00;99.90;;;;;;4973126;28;20047;-65